sensor_id;sensor_type;location;lat;lon;timestamp;temperature;humidity
15765;DHT22;7983;50.744;7.086;2023-04-03T00:01:16;6.90;99.90
15765;DHT22;7983;50.744;7.086;2023-04-03T00:03:46;6.90;99.90
15765;DHT22;7983;50.744;7.086;2023-04-03T00:06:12;6.90;99.90
15765;DHT22;7983;50.744;7.086;2023-04-03T00:08:41;7.00;99.90
15765;DHT22;7983;50.744;7.086;2023-04-03T00:11:07;6.90;99.90
15765;DHT22;7983;50.744;7.086;2023-04-03T00:13:33;7.00;99.90
15765;DHT22;7983;50.744;7.086;2023-04-03T00:15:59;6.90;99.90
15765;DHT22;7983;50.744;7.086;2023-04-03T00:18:25;6.90;99.90
15765;DHT22;7983;50.744;7.086;2023-04-03T00:20:51;6.90;99.90
15765;DHT22;7983;50.744;7.086;2023-04-03T00:23:17;6.90;99.90
15765;DHT22;7983;50.744;7.086;2023-04-03T00:25:43;6.90;99.90
15765;DHT22;7983;50.744;7.086;2023-04-03T00:28:11;6.80;99.90
15765;DHT22;7983;50.744;7.086;2023-04-03T00:30:37;6.80;99.90
15765;DHT22;7983;50.744;7.086;2023-04-03T00:33:05;6.90;99.90
15765;DHT22;7983;50.744;7.086;2023-04-03T00:35:34;6.90;99.90
15765;DHT22;7983;50.744;7.086;2023-04-03T00:38:00;6.80;99.90
15765;DHT22;7983;50.744;7.086;2023-04-03T00:40:36;6.80;99.90
15765;DHT22;7983;50.744;7.086;2023-04-03T00:45:43;6.80;99.90
15765;DHT22;7983;50.744;7.086;2023-04-03T00:48:15;6.80;99.90
15765;DHT22;7983;50.744;7.086;2023-04-03T00:50:45;6.80;99.90
15765;DHT22;7983;50.744;7.086;2023-04-03T00:53:21;6.80;99.90
15765;DHT22;7983;50.744;7.086;2023-04-03T00:55:51;6.70;99.90
15765;DHT22;7983;50.744;7.086;2023-04-03T00:58:23;6.70;99.90
15765;DHT22;7983;50.744;7.086;2023-04-03T01:00:55;6.70;99.90
15765;DHT22;7983;50.744;7.086;2023-04-03T01:03:23;6.70;99.90
15765;DHT22;7983;50.744;7.086;2023-04-03T01:05:49;6.70;99.90
15765;DHT22;7983;50.744;7.086;2023-04-03T01:08:15;6.70;99.90
15765;DHT22;7983;50.744;7.086;2023-04-03T01:10:41;6.60;99.90
15765;DHT22;7983;50.744;7.086;2023-04-03T01:13:26;6.60;99.90
15765;DHT22;7983;50.744;7.086;2023-04-03T01:15:52;6.60;99.90
15765;DHT22;7983;50.744;7.086;2023-04-03T01:18:18;6.60;99.90
15765;DHT22;7983;50.744;7.086;2023-04-03T01:21:16;6.60;99.90
15765;DHT22;7983;50.744;7.086;2023-04-03T01:26:31;6.50;99.90
15765;DHT22;7983;50.744;7.086;2023-04-03T01:28:59;6.60;99.90
15765;DHT22;7983;50.744;7.086;2023-04-03T01:31:52;6.50;99.90
15765;DHT22;7983;50.744;7.086;2023-04-03T01:34:19;6.50;99.90
15765;DHT22;7983;50.744;7.086;2023-04-03T01:36:44;6.50;99.90
15765;DHT22;7983;50.744;7.086;2023-04-03T01:39:15;6.50;99.90
15765;DHT22;7983;50.744;7.086;2023-04-03T01:41:41;6.40;99.90
15765;DHT22;7983;50.744;7.086;2023-04-03T01:44:09;6.40;99.90
15765;DHT22;7983;50.744;7.086;2023-04-03T01:46:34;6.40;99.90
15765;DHT22;7983;50.744;7.086;2023-04-03T01:49:05;6.40;99.90
15765;DHT22;7983;50.744;7.086;2023-04-03T01:51:30;6.50;99.90
15765;DHT22;7983;50.744;7.086;2023-04-03T01:53:56;6.30;99.90
15765;DHT22;7983;50.744;7.086;2023-04-03T01:56:24;6.30;99.90
15765;DHT22;7983;50.744;7.086;2023-04-03T01:58:50;6.30;99.90
15765;DHT22;7983;50.744;7.086;2023-04-03T02:01:16;6.30;99.90
15765;DHT22;7983;50.744;7.086;2023-04-03T02:03:46;6.20;99.90
15765;DHT22;7983;50.744;7.086;2023-04-03T02:06:15;6.20;99.90
15765;DHT22;7983;50.744;7.086;2023-04-03T02:08:40;6.20;99.90
15765;DHT22;7983;50.744;7.086;2023-04-03T02:11:11;6.20;99.90
15765;DHT22;7983;50.744;7.086;2023-04-03T02:13:36;6.10;99.90
15765;DHT22;7983;50.744;7.086;2023-04-03T02:16:11;6.10;99.90
15765;DHT22;7983;50.744;7.086;2023-04-03T02:18:43;6.10;99.90
15765;DHT22;7983;50.744;7.086;2023-04-03T02:21:08;6.00;99.90
15765;DHT22;7983;50.744;7.086;2023-04-03T02:23:38;6.00;99.90
15765;DHT22;7983;50.744;7.086;2023-04-03T02:26:10;6.00;99.90
15765;DHT22;7983;50.744;7.086;2023-04-03T02:28:36;6.00;99.90
15765;DHT22;7983;50.744;7.086;2023-04-03T02:31:05;6.00;99.90
15765;DHT22;7983;50.744;7.086;2023-04-03T02:33:35;5.90;99.90
15765;DHT22;7983;50.744;7.086;2023-04-03T02:36:04;5.90;99.90
15765;DHT22;7983;50.744;7.086;2023-04-03T02:38:33;5.90;99.90
15765;DHT22;7983;50.744;7.086;2023-04-03T02:41:03;6.00;99.90
15765;DHT22;7983;50.744;7.086;2023-04-03T02:43:29;5.90;99.90
15765;DHT22;7983;50.744;7.086;2023-04-03T02:45:55;5.90;99.90
15765;DHT22;7983;50.744;7.086;2023-04-03T02:48:21;5.90;99.90
15765;DHT22;7983;50.744;7.086;2023-04-03T02:50:54;5.80;99.90
15765;DHT22;7983;50.744;7.086;2023-04-03T02:53:20;5.80;99.90
15765;DHT22;7983;50.744;7.086;2023-04-03T02:55:48;5.80;99.90
15765;DHT22;7983;50.744;7.086;2023-04-03T02:58:13;5.80;99.90
15765;DHT22;7983;50.744;7.086;2023-04-03T03:00:41;5.80;99.90
15765;DHT22;7983;50.744;7.086;2023-04-03T03:03:09;5.70;99.90
15765;DHT22;7983;50.744;7.086;2023-04-03T03:05:35;5.70;99.90
15765;DHT22;7983;50.744;7.086;2023-04-03T03:08:03;5.80;99.90
15765;DHT22;7983;50.744;7.086;2023-04-03T03:10:29;5.70;99.90
15765;DHT22;7983;50.744;7.086;2023-04-03T03:12:54;5.60;99.90
15765;DHT22;7983;50.744;7.086;2023-04-03T03:15:22;5.60;99.90
15765;DHT22;7983;50.744;7.086;2023-04-03T03:17:48;5.60;99.90
15765;DHT22;7983;50.744;7.086;2023-04-03T03:20:13;5.60;99.90
15765;DHT22;7983;50.744;7.086;2023-04-03T03:22:41;5.60;99.90
15765;DHT22;7983;50.744;7.086;2023-04-03T03:25:07;5.60;99.90
15765;DHT22;7983;50.744;7.086;2023-04-03T03:27:33;5.50;99.90
15765;DHT22;7983;50.744;7.086;2023-04-03T03:30:03;5.50;99.90
15765;DHT22;7983;50.744;7.086;2023-04-03T03:32:29;5.50;99.90
15765;DHT22;7983;50.744;7.086;2023-04-03T03:34:55;5.50;99.90
15765;DHT22;7983;50.744;7.086;2023-04-03T03:37:20;5.50;99.90
15765;DHT22;7983;50.744;7.086;2023-04-03T03:39:46;5.50;99.90
15765;DHT22;7983;50.744;7.086;2023-04-03T03:42:16;5.40;99.90
15765;DHT22;7983;50.744;7.086;2023-04-03T03:44:44;5.40;99.90
15765;DHT22;7983;50.744;7.086;2023-04-03T03:47:14;5.50;99.90
15765;DHT22;7983;50.744;7.086;2023-04-03T03:49:40;5.40;99.90
15765;DHT22;7983;50.744;7.086;2023-04-03T03:52:06;5.40;99.90
15765;DHT22;7983;50.744;7.086;2023-04-03T03:54:36;5.30;99.90
15765;DHT22;7983;50.744;7.086;2023-04-03T03:57:06;5.40;99.90
15765;DHT22;7983;50.744;7.086;2023-04-03T03:59:32;5.30;99.90
15765;DHT22;7983;50.744;7.086;2023-04-03T04:02:00;5.20;99.90
15765;DHT22;7983;50.744;7.086;2023-04-03T04:04:28;5.20;99.90
15765;DHT22;7983;50.744;7.086;2023-04-03T04:06:58;5.20;99.90
15765;DHT22;7983;50.744;7.086;2023-04-03T04:09:27;5.10;99.90
15765;DHT22;7983;50.744;7.086;2023-04-03T04:11:55;5.10;99.90
15765;DHT22;7983;50.744;7.086;2023-04-03T04:14:21;5.10;99.90
15765;DHT22;7983;50.744;7.086;2023-04-03T04:16:47;5.10;99.90
15765;DHT22;7983;50.744;7.086;2023-04-03T04:19:18;5.00;99.90
15765;DHT22;7983;50.744;7.086;2023-04-03T04:21:43;4.90;99.90
15765;DHT22;7983;50.744;7.086;2023-04-03T04:24:09;5.00;99.90
15765;DHT22;7983;50.744;7.086;2023-04-03T04:26:35;4.90;99.90
15765;DHT22;7983;50.744;7.086;2023-04-03T04:29:01;4.80;99.90
15765;DHT22;7983;50.744;7.086;2023-04-03T04:31:29;4.80;99.90
15765;DHT22;7983;50.744;7.086;2023-04-03T04:33:57;4.70;99.90
15765;DHT22;7983;50.744;7.086;2023-04-03T04:36:23;4.70;99.90
15765;DHT22;7983;50.744;7.086;2023-04-03T04:38:51;4.70;99.90
15765;DHT22;7983;50.744;7.086;2023-04-03T04:41:24;4.70;99.90
15765;DHT22;7983;50.744;7.086;2023-04-03T04:43:50;4.60;99.90
15765;DHT22;7983;50.744;7.086;2023-04-03T04:46:15;4.60;99.90
15765;DHT22;7983;50.744;7.086;2023-04-03T04:48:41;4.50;99.90
15765;DHT22;7983;50.744;7.086;2023-04-03T04:51:09;4.50;99.90
15765;DHT22;7983;50.744;7.086;2023-04-03T04:53:38;4.50;99.90
15765;DHT22;7983;50.744;7.086;2023-04-03T04:56:04;4.40;99.90
15765;DHT22;7983;50.744;7.086;2023-04-03T04:58:32;4.40;99.90
15765;DHT22;7983;50.744;7.086;2023-04-03T05:01:06;4.40;99.90
15765;DHT22;7983;50.744;7.086;2023-04-03T05:03:32;4.40;99.90
15765;DHT22;7983;50.744;7.086;2023-04-03T05:05:58;4.30;99.90
15765;DHT22;7983;50.744;7.086;2023-04-03T05:08:23;4.30;99.90
15765;DHT22;7983;50.744;7.086;2023-04-03T05:10:51;4.30;99.90
15765;DHT22;7983;50.744;7.086;2023-04-03T05:13:18;4.20;99.90
15765;DHT22;7983;50.744;7.086;2023-04-03T05:15:46;4.20;99.90
15765;DHT22;7983;50.744;7.086;2023-04-03T05:18:12;4.20;99.90
15765;DHT22;7983;50.744;7.086;2023-04-03T05:20:41;4.20;99.90
15765;DHT22;7983;50.744;7.086;2023-04-03T05:23:06;4.10;99.90
15765;DHT22;7983;50.744;7.086;2023-04-03T05:25:37;4.10;99.90
15765;DHT22;7983;50.744;7.086;2023-04-03T05:28:03;4.10;99.90
15765;DHT22;7983;50.744;7.086;2023-04-03T05:30:31;4.10;99.90
15765;DHT22;7983;50.744;7.086;2023-04-03T05:33:01;4.10;99.90
15765;DHT22;7983;50.744;7.086;2023-04-03T05:35:32;4.10;99.90
15765;DHT22;7983;50.744;7.086;2023-04-03T05:38:00;4.10;99.90
15765;DHT22;7983;50.744;7.086;2023-04-03T05:40:30;4.10;99.90
15765;DHT22;7983;50.744;7.086;2023-04-03T05:42:56;4.10;99.90
15765;DHT22;7983;50.744;7.086;2023-04-03T05:45:22;4.10;99.90
15765;DHT22;7983;50.744;7.086;2023-04-03T05:47:47;4.20;99.90
15765;DHT22;7983;50.744;7.086;2023-04-03T05:50:13;4.10;99.90
15765;DHT22;7983;50.744;7.086;2023-04-03T05:52:41;4.10;99.90
15765;DHT22;7983;50.744;7.086;2023-04-03T05:55:08;4.10;99.90
15765;DHT22;7983;50.744;7.086;2023-04-03T05:57:33;4.10;99.90
15765;DHT22;7983;50.744;7.086;2023-04-03T06:00:02;4.10;99.90
15765;DHT22;7983;50.744;7.086;2023-04-03T06:02:33;4.10;99.90
15765;DHT22;7983;50.744;7.086;2023-04-03T06:05:01;4.10;99.90
15765;DHT22;7983;50.744;7.086;2023-04-03T06:07:27;4.20;99.90
15765;DHT22;7983;50.744;7.086;2023-04-03T06:09:57;4.20;99.90
15765;DHT22;7983;50.744;7.086;2023-04-03T06:12:25;4.20;99.90
15765;DHT22;7983;50.744;7.086;2023-04-03T06:14:53;4.20;99.90
15765;DHT22;7983;50.744;7.086;2023-04-03T06:17:19;4.20;99.90
15765;DHT22;7983;50.744;7.086;2023-04-03T06:19:45;4.30;99.90
15765;DHT22;7983;50.744;7.086;2023-04-03T06:22:11;4.30;99.90
15765;DHT22;7983;50.744;7.086;2023-04-03T06:24:37;4.30;99.90
15765;DHT22;7983;50.744;7.086;2023-04-03T06:27:05;4.40;99.90
15765;DHT22;7983;50.744;7.086;2023-04-03T06:29:34;4.40;99.90
15765;DHT22;7983;50.744;7.086;2023-04-03T06:32:02;4.50;99.90
15765;DHT22;7983;50.744;7.086;2023-04-03T06:34:28;4.50;99.90
15765;DHT22;7983;50.744;7.086;2023-04-03T06:36:53;4.60;99.90
15765;DHT22;7983;50.744;7.086;2023-04-03T06:39:22;4.60;99.90
15765;DHT22;7983;50.744;7.086;2023-04-03T06:41:50;4.60;99.90
15765;DHT22;7983;50.744;7.086;2023-04-03T06:44:18;4.70;99.90
15765;DHT22;7983;50.744;7.086;2023-04-03T06:46:44;4.70;99.90
15765;DHT22;7983;50.744;7.086;2023-04-03T06:49:11;4.80;99.90
15765;DHT22;7983;50.744;7.086;2023-04-03T06:51:37;4.80;99.90
15765;DHT22;7983;50.744;7.086;2023-04-03T06:54:04;4.80;99.90
15765;DHT22;7983;50.744;7.086;2023-04-03T06:56:36;4.90;99.90
15765;DHT22;7983;50.744;7.086;2023-04-03T06:59:02;5.00;99.90
15765;DHT22;7983;50.744;7.086;2023-04-03T07:01:31;5.00;99.90
15765;DHT22;7983;50.744;7.086;2023-04-03T07:03:56;5.20;99.90
15765;DHT22;7983;50.744;7.086;2023-04-03T07:06:22;5.00;99.90
15765;DHT22;7983;50.744;7.086;2023-04-03T07:08:48;5.10;99.90
15765;DHT22;7983;50.744;7.086;2023-04-03T07:11:15;5.20;99.90
15765;DHT22;7983;50.744;7.086;2023-04-03T07:13:41;5.20;99.90
15765;DHT22;7983;50.744;7.086;2023-04-03T07:16:07;5.30;99.90
15765;DHT22;7983;50.744;7.086;2023-04-03T07:18:37;5.30;99.90
15765;DHT22;7983;50.744;7.086;2023-04-03T07:21:04;5.30;99.90
15765;DHT22;7983;50.744;7.086;2023-04-03T07:23:35;5.40;99.90
15765;DHT22;7983;50.744;7.086;2023-04-03T07:26:03;5.50;99.90
15765;DHT22;7983;50.744;7.086;2023-04-03T07:28:28;5.50;99.90
15765;DHT22;7983;50.744;7.086;2023-04-03T07:31:03;5.60;99.90
15765;DHT22;7983;50.744;7.086;2023-04-03T07:33:32;5.60;99.90
15765;DHT22;7983;50.744;7.086;2023-04-03T07:35:59;5.80;99.90
15765;DHT22;7983;50.744;7.086;2023-04-03T07:38:25;5.70;99.90
15765;DHT22;7983;50.744;7.086;2023-04-03T07:40:51;5.80;99.90
15765;DHT22;7983;50.744;7.086;2023-04-03T07:43:19;6.00;99.90
15765;DHT22;7983;50.744;7.086;2023-04-03T07:45:46;5.90;99.90
15765;DHT22;7983;50.744;7.086;2023-04-03T07:48:13;6.00;99.90
15765;DHT22;7983;50.744;7.086;2023-04-03T07:50:42;6.10;99.90
15765;DHT22;7983;50.744;7.086;2023-04-03T07:53:08;6.20;99.90
15765;DHT22;7983;50.744;7.086;2023-04-03T07:55:34;6.20;99.90
15765;DHT22;7983;50.744;7.086;2023-04-03T07:58:05;6.30;99.90
15765;DHT22;7983;50.744;7.086;2023-04-03T08:00:31;6.40;99.90
15765;DHT22;7983;50.744;7.086;2023-04-03T08:02:59;6.40;99.90
15765;DHT22;7983;50.744;7.086;2023-04-03T08:05:25;6.50;99.90
15765;DHT22;7983;50.744;7.086;2023-04-03T08:07:53;6.50;99.90
15765;DHT22;7983;50.744;7.086;2023-04-03T08:10:24;6.60;99.90
15765;DHT22;7983;50.744;7.086;2023-04-03T08:12:49;6.60;99.90
15765;DHT22;7983;50.744;7.086;2023-04-03T08:15:15;6.70;99.90
15765;DHT22;7983;50.744;7.086;2023-04-03T08:17:44;6.70;99.90
15765;DHT22;7983;50.744;7.086;2023-04-03T08:20:10;6.80;99.90
15765;DHT22;7983;50.744;7.086;2023-04-03T08:22:38;6.80;99.90
15765;DHT22;7983;50.744;7.086;2023-04-03T08:25:04;6.90;99.90
15765;DHT22;7983;50.744;7.086;2023-04-03T08:27:30;6.90;99.90
15765;DHT22;7983;50.744;7.086;2023-04-03T08:29:58;6.90;99.90
15765;DHT22;7983;50.744;7.086;2023-04-03T08:32:27;7.00;99.90
15765;DHT22;7983;50.744;7.086;2023-04-03T08:34:52;7.10;99.90
15765;DHT22;7983;50.744;7.086;2023-04-03T08:37:20;7.10;99.90
15765;DHT22;7983;50.744;7.086;2023-04-03T08:39:46;7.20;99.90
15765;DHT22;7983;50.744;7.086;2023-04-03T08:42:38;7.20;99.90
15765;DHT22;7983;50.744;7.086;2023-04-03T08:45:16;7.30;99.90
15765;DHT22;7983;50.744;7.086;2023-04-03T08:48:08;7.30;99.90
15765;DHT22;7983;50.744;7.086;2023-04-03T08:50:41;7.30;99.90
15765;DHT22;7983;50.744;7.086;2023-04-03T08:53:16;7.40;99.90
15765;DHT22;7983;50.744;7.086;2023-04-03T08:55:46;7.50;99.90
15765;DHT22;7983;50.744;7.086;2023-04-03T08:58:19;7.50;99.90
15765;DHT22;7983;50.744;7.086;2023-04-03T09:03:15;7.60;99.90
15765;DHT22;7983;50.744;7.086;2023-04-03T09:06:06;7.60;99.90
15765;DHT22;7983;50.744;7.086;2023-04-03T09:17:07;7.90;99.90
15765;DHT22;7983;50.744;7.086;2023-04-03T09:20:09;7.90;99.90
15765;DHT22;7983;50.744;7.086;2023-04-03T09:22:41;8.00;99.90
15765;DHT22;7983;50.744;7.086;2023-04-03T09:25:21;8.10;99.90
15765;DHT22;7983;50.744;7.086;2023-04-03T09:27:49;8.10;99.90
15765;DHT22;7983;50.744;7.086;2023-04-03T09:30:18;8.10;99.90
15765;DHT22;7983;50.744;7.086;2023-04-03T09:32:49;8.20;99.90
15765;DHT22;7983;50.744;7.086;2023-04-03T09:37:46;8.30;99.90
15765;DHT22;7983;50.744;7.086;2023-04-03T09:42:54;8.40;99.90
15765;DHT22;7983;50.744;7.086;2023-04-03T09:45:32;8.40;99.90
15765;DHT22;7983;50.744;7.086;2023-04-03T09:48:07;8.50;99.90
15765;DHT22;7983;50.744;7.086;2023-04-03T09:50:36;8.50;99.90
15765;DHT22;7983;50.744;7.086;2023-04-03T09:58:45;8.90;99.90
15765;DHT22;7983;50.744;7.086;2023-04-03T10:01:41;9.40;99.90
15765;DHT22;7983;50.744;7.086;2023-04-03T10:04:16;10.20;99.90
15765;DHT22;7983;50.744;7.086;2023-04-03T10:06:57;10.80;99.90
15765;DHT22;7983;50.744;7.086;2023-04-03T10:09:31;11.50;99.90
15765;DHT22;7983;50.744;7.086;2023-04-03T10:12:07;12.00;99.90
15765;DHT22;7983;50.744;7.086;2023-04-03T10:14:57;12.50;99.90
15765;DHT22;7983;50.744;7.086;2023-04-03T10:17:52;13.00;99.90
15765;DHT22;7983;50.744;7.086;2023-04-03T10:20:36;13.30;99.90
15765;DHT22;7983;50.744;7.086;2023-04-03T10:28:46;14.20;99.90
15765;DHT22;7983;50.744;7.086;2023-04-03T10:31:29;14.40;99.90
15765;DHT22;7983;50.744;7.086;2023-04-03T10:36:54;14.50;99.90
15765;DHT22;7983;50.744;7.086;2023-04-03T10:42:35;14.70;93.20
15765;DHT22;7983;50.744;7.086;2023-04-03T10:48:18;14.70;76.30
15765;DHT22;7983;50.744;7.086;2023-04-03T10:51:12;14.70;90.00
15765;DHT22;7983;50.744;7.086;2023-04-03T10:58:49;14.70;99.90
15765;DHT22;7983;50.744;7.086;2023-04-03T11:01:21;14.80;99.40
15765;DHT22;7983;50.744;7.086;2023-04-03T11:04:07;14.90;98.50
15765;DHT22;7983;50.744;7.086;2023-04-03T11:06:48;15.00;79.20
15765;DHT22;7983;50.744;7.086;2023-04-03T11:09:26;14.90;96.10
15765;DHT22;7983;50.744;7.086;2023-04-03T11:12:04;14.90;98.40
15765;DHT22;7983;50.744;7.086;2023-04-03T11:14:34;14.80;95.50
15765;DHT22;7983;50.744;7.086;2023-04-03T11:20:09;14.80;85.00
15765;DHT22;7983;50.744;7.086;2023-04-03T11:27:37;14.60;96.40
15765;DHT22;7983;50.744;7.086;2023-04-03T11:30:19;14.60;93.90
15765;DHT22;7983;50.744;7.086;2023-04-03T11:35:33;14.70;91.40
15765;DHT22;7983;50.744;7.086;2023-04-03T11:38:00;14.70;98.00
15765;DHT22;7983;50.744;7.086;2023-04-03T11:40:37;14.70;93.20
15765;DHT22;7983;50.744;7.086;2023-04-03T11:51:47;14.50;95.10
15765;DHT22;7983;50.744;7.086;2023-04-03T11:53:48;14.50;96.70
15765;DHT22;7983;50.744;7.086;2023-04-03T12:01:48;14.50;79.00
15765;DHT22;7983;50.744;7.086;2023-04-03T12:04:16;14.50;82.90
15765;DHT22;7983;50.744;7.086;2023-04-03T12:06:49;14.40;87.00
15765;DHT22;7983;50.744;7.086;2023-04-03T12:11:57;14.30;85.70
15765;DHT22;7983;50.744;7.086;2023-04-03T12:14:24;14.30;90.10
15765;DHT22;7983;50.744;7.086;2023-04-03T12:16:53;14.40;92.00
15765;DHT22;7983;50.744;7.086;2023-04-03T12:19:38;14.30;90.30
15765;DHT22;7983;50.744;7.086;2023-04-03T12:22:17;14.30;68.20
15765;DHT22;7983;50.744;7.086;2023-04-03T12:24:51;14.40;79.10
15765;DHT22;7983;50.744;7.086;2023-04-03T12:27:32;14.40;81.50
15765;DHT22;7983;50.744;7.086;2023-04-03T12:30:13;14.40;72.00
15765;DHT22;7983;50.744;7.086;2023-04-03T12:35:21;14.40;87.90
15765;DHT22;7983;50.744;7.086;2023-04-03T12:46:43;14.80;74.90
15765;DHT22;7983;50.744;7.086;2023-04-03T12:49:37;14.90;86.20
15765;DHT22;7983;50.744;7.086;2023-04-03T12:52:16;15.00;75.20
15765;DHT22;7983;50.744;7.086;2023-04-03T12:54:45;15.00;83.40
15765;DHT22;7983;50.744;7.086;2023-04-03T12:57:17;15.10;74.20
15765;DHT22;7983;50.744;7.086;2023-04-03T12:59:45;15.00;74.60
15765;DHT22;7983;50.744;7.086;2023-04-03T13:02:40;15.00;73.60
15765;DHT22;7983;50.744;7.086;2023-04-03T13:05:15;15.00;67.80
15765;DHT22;7983;50.744;7.086;2023-04-03T13:07:41;15.00;82.80
15765;DHT22;7983;50.744;7.086;2023-04-03T13:13:13;15.20;82.30
15765;DHT22;7983;50.744;7.086;2023-04-03T13:15:45;15.30;73.50
15765;DHT22;7983;50.744;7.086;2023-04-03T13:18:38;15.40;82.20
15765;DHT22;7983;50.744;7.086;2023-04-03T13:21:19;15.40;76.80
15765;DHT22;7983;50.744;7.086;2023-04-03T13:23:48;15.50;79.80
15765;DHT22;7983;50.744;7.086;2023-04-03T13:26:33;15.70;87.70
15765;DHT22;7983;50.744;7.086;2023-04-03T13:29:06;15.80;86.90
15765;DHT22;7983;50.744;7.086;2023-04-03T13:31:40;15.90;81.10
15765;DHT22;7983;50.744;7.086;2023-04-03T13:34:12;16.00;85.50
15765;DHT22;7983;50.744;7.086;2023-04-03T13:41:49;16.30;83.10
15765;DHT22;7983;50.744;7.086;2023-04-03T13:46:41;16.30;84.60
15765;DHT22;7983;50.744;7.086;2023-04-03T13:51:58;16.40;77.30
15765;DHT22;7983;50.744;7.086;2023-04-03T13:54:35;16.50;88.30
15765;DHT22;7983;50.744;7.086;2023-04-03T13:57:10;16.60;79.20
15765;DHT22;7983;50.744;7.086;2023-04-03T13:59:37;16.60;86.40
15765;DHT22;7983;50.744;7.086;2023-04-03T14:04:44;16.70;88.80
15765;DHT22;7983;50.744;7.086;2023-04-03T14:07:15;16.80;76.00
15765;DHT22;7983;50.744;7.086;2023-04-03T14:09:44;16.80;78.20
15765;DHT22;7983;50.744;7.086;2023-04-03T14:12:36;16.80;82.70
15765;DHT22;7983;50.744;7.086;2023-04-03T14:15:26;16.80;75.50
15765;DHT22;7983;50.744;7.086;2023-04-03T14:17:55;16.80;75.80
15765;DHT22;7983;50.744;7.086;2023-04-03T14:20:25;16.80;79.70
15765;DHT22;7983;50.744;7.086;2023-04-03T14:22:54;16.80;82.20
15765;DHT22;7983;50.744;7.086;2023-04-03T14:25:21;16.80;81.50
15765;DHT22;7983;50.744;7.086;2023-04-03T14:27:54;16.80;79.00
15765;DHT22;7983;50.744;7.086;2023-04-03T14:30:29;16.80;79.00
15765;DHT22;7983;50.744;7.086;2023-04-03T14:32:55;16.80;73.50
15765;DHT22;7983;50.744;7.086;2023-04-03T14:35:22;16.80;82.90
15765;DHT22;7983;50.744;7.086;2023-04-03T14:37:48;16.80;80.60
15765;DHT22;7983;50.744;7.086;2023-04-03T14:40:17;16.80;82.80
15765;DHT22;7983;50.744;7.086;2023-04-03T14:42:43;16.90;75.90
15765;DHT22;7983;50.744;7.086;2023-04-03T14:45:11;16.90;79.50
15765;DHT22;7983;50.744;7.086;2023-04-03T14:47:58;16.90;74.70
15765;DHT22;7983;50.744;7.086;2023-04-03T14:50:26;16.90;75.90
15765;DHT22;7983;50.744;7.086;2023-04-03T14:52:54;16.90;79.60
15765;DHT22;7983;50.744;7.086;2023-04-03T14:55:22;16.90;79.90
15765;DHT22;7983;50.744;7.086;2023-04-03T14:57:48;17.00;78.60
15765;DHT22;7983;50.744;7.086;2023-04-03T15:00:17;16.90;76.50
15765;DHT22;7983;50.744;7.086;2023-04-03T15:02:44;16.90;77.90
15765;DHT22;7983;50.744;7.086;2023-04-03T15:05:11;16.90;75.80
15765;DHT22;7983;50.744;7.086;2023-04-03T15:07:42;16.90;76.90
15765;DHT22;7983;50.744;7.086;2023-04-03T15:12:42;16.90;75.20
15765;DHT22;7983;50.744;7.086;2023-04-03T15:15:08;17.00;74.10
15765;DHT22;7983;50.744;7.086;2023-04-03T15:17:35;17.00;77.30
15765;DHT22;7983;50.744;7.086;2023-04-03T15:20:02;17.00;76.40
15765;DHT22;7983;50.744;7.086;2023-04-03T15:22:27;17.00;78.10
15765;DHT22;7983;50.744;7.086;2023-04-03T15:24:53;17.10;77.20
15765;DHT22;7983;50.744;7.086;2023-04-03T15:27:19;17.10;72.70
15765;DHT22;7983;50.744;7.086;2023-04-03T15:29:45;17.10;70.80
15765;DHT22;7983;50.744;7.086;2023-04-03T15:32:11;17.00;73.50
15765;DHT22;7983;50.744;7.086;2023-04-03T15:34:37;17.00;71.80
15765;DHT22;7983;50.744;7.086;2023-04-03T15:37:03;16.80;73.00
15765;DHT22;7983;50.744;7.086;2023-04-03T15:39:28;16.70;71.90
15765;DHT22;7983;50.744;7.086;2023-04-03T15:41:58;16.70;72.90
15765;DHT22;7983;50.744;7.086;2023-04-03T15:44:32;16.60;70.80
15765;DHT22;7983;50.744;7.086;2023-04-03T15:46:59;16.60;73.40
15765;DHT22;7983;50.744;7.086;2023-04-03T15:49:25;16.60;72.90
15765;DHT22;7983;50.744;7.086;2023-04-03T15:51:54;16.60;74.90
15765;DHT22;7983;50.744;7.086;2023-04-03T15:54:22;16.60;74.20
15765;DHT22;7983;50.744;7.086;2023-04-03T15:56:49;16.60;73.00
15765;DHT22;7983;50.744;7.086;2023-04-03T15:59:21;16.60;73.80
15765;DHT22;7983;50.744;7.086;2023-04-03T16:01:48;16.60;70.60
15765;DHT22;7983;50.744;7.086;2023-04-03T16:04:14;16.60;74.80
15765;DHT22;7983;50.744;7.086;2023-04-03T16:06:43;16.60;75.00
15765;DHT22;7983;50.744;7.086;2023-04-03T16:09:09;16.60;71.40
15765;DHT22;7983;50.744;7.086;2023-04-03T16:11:35;16.50;69.70
15765;DHT22;7983;50.744;7.086;2023-04-03T16:14:02;16.40;70.50
15765;DHT22;7983;50.744;7.086;2023-04-03T16:16:30;16.30;66.50
15765;DHT22;7983;50.744;7.086;2023-04-03T16:18:59;16.10;69.40
15765;DHT22;7983;50.744;7.086;2023-04-03T16:21:26;15.90;67.00
15765;DHT22;7983;50.744;7.086;2023-04-03T16:23:53;15.80;66.00
15765;DHT22;7983;50.744;7.086;2023-04-03T16:26:18;15.60;68.20
15765;DHT22;7983;50.744;7.086;2023-04-03T16:28:46;15.40;68.20
15765;DHT22;7983;50.744;7.086;2023-04-03T16:31:14;15.20;67.40
15765;DHT22;7983;50.744;7.086;2023-04-03T16:33:40;15.10;67.30
15765;DHT22;7983;50.744;7.086;2023-04-03T16:36:06;14.90;69.20
15765;DHT22;7983;50.744;7.086;2023-04-03T16:38:35;14.70;69.00
15765;DHT22;7983;50.744;7.086;2023-04-03T16:41:03;14.60;70.60
15765;DHT22;7983;50.744;7.086;2023-04-03T16:43:31;14.50;68.50
15765;DHT22;7983;50.744;7.086;2023-04-03T16:46:03;14.40;69.30
15765;DHT22;7983;50.744;7.086;2023-04-03T16:48:29;14.30;69.60
15765;DHT22;7983;50.744;7.086;2023-04-03T16:50:55;14.30;70.10
15765;DHT22;7983;50.744;7.086;2023-04-03T16:53:22;14.20;68.40
15765;DHT22;7983;50.744;7.086;2023-04-03T16:55:48;14.10;70.00
15765;DHT22;7983;50.744;7.086;2023-04-03T16:58:16;14.00;69.40
15765;DHT22;7983;50.744;7.086;2023-04-03T17:00:45;14.00;71.00
15765;DHT22;7983;50.744;7.086;2023-04-03T17:03:14;13.90;70.10
15765;DHT22;7983;50.744;7.086;2023-04-03T17:05:40;13.90;69.80
15765;DHT22;7983;50.744;7.086;2023-04-03T17:08:06;13.80;71.00
15765;DHT22;7983;50.744;7.086;2023-04-03T17:10:32;13.70;71.90
15765;DHT22;7983;50.744;7.086;2023-04-03T17:13:00;13.60;71.50
15765;DHT22;7983;50.744;7.086;2023-04-03T17:15:30;13.50;70.70
15765;DHT22;7983;50.744;7.086;2023-04-03T17:18:00;13.40;71.70
15765;DHT22;7983;50.744;7.086;2023-04-03T17:20:26;13.30;72.20
15765;DHT22;7983;50.744;7.086;2023-04-03T17:22:53;13.20;71.50
15765;DHT22;7983;50.744;7.086;2023-04-03T17:25:22;13.20;72.60
15765;DHT22;7983;50.744;7.086;2023-04-03T17:27:48;13.10;70.00
15765;DHT22;7983;50.744;7.086;2023-04-03T17:30:13;13.10;70.40
15765;DHT22;7983;50.744;7.086;2023-04-03T17:32:41;13.00;70.10
15765;DHT22;7983;50.744;7.086;2023-04-03T17:35:07;12.90;71.50
15765;DHT22;7983;50.744;7.086;2023-04-03T17:37:35;12.90;71.40
15765;DHT22;7983;50.744;7.086;2023-04-03T17:40:03;12.70;72.60
15765;DHT22;7983;50.744;7.086;2023-04-03T17:42:28;12.70;72.20
15765;DHT22;7983;50.744;7.086;2023-04-03T17:44:55;12.60;72.90
15765;DHT22;7983;50.744;7.086;2023-04-03T17:47:21;12.50;73.00
15765;DHT22;7983;50.744;7.086;2023-04-03T17:49:47;12.50;72.60
15765;DHT22;7983;50.744;7.086;2023-04-03T17:52:15;12.30;71.70
15765;DHT22;7983;50.744;7.086;2023-04-03T17:54:40;12.20;72.20